Alpha, California Weather observations

Data are for observation ending at time listed.
 Day   Time    Ave.   Ave.  Ave.  Vector   Max.   Stn.    Total    Solar   Ave.   Snow 
  of    of     Air    Rel.  Wind   Wind    Wind   Baro.  Precip.   Rad.    Soil   Depth
Year   Day     Temp.  Hum.  Speed  Dir.    Gust   Pres.                    Temp.       
2014   (PST)    F      %     mph   deg.    mph     mb.     in.     W/m2     F      in. 
---------------------------------------------------------------------------------------  
 107   13:40   55.1    37    7.3   205     18.5   782.9    0.00     609    999.0  162.0
 107   13:50   54.5    38    5.1   225     15.3   782.8    0.00     496    999.0  162.0
 107   14:00   54.3    37    9.7   197     18.6   782.8    0.00     507    999.0  162.0
 107   14:10   54.3    38   10.4   190     20.2   782.6    0.00     553    999.0  162.0
 107   14:20   54.2    36   12.1   186     19.5   782.5    0.00     414    999.0  162.0
 107   14:30   53.9    41    5.7   230     14.5   782.5    0.00     552    999.0  162.1
 107   14:40   54.6    41    5.5   220     13.7   782.4    0.00     476    999.0  162.0
 107   14:50   53.4    42    5.2   235     12.3   782.3    0.00     374    999.0  162.1
 107   15:00   53.3    42    4.9   230     12.1   782.2    0.00     483    999.0  162.1
 107   15:10   53.1    44    4.9   238     12.3   782.1    0.00     158    999.0  162.1
 107   15:20   52.8    44    5.0   233     14.4   782.0    0.00      71    999.0  162.2
 107   15:30   52.2    45    4.5   230      9.7   782.0    0.00     100    999.0  162.1
 107   15:40   52.0    49    3.9   250      9.6   782.0    0.00     139    999.0  162.2
 107   15:50   51.4    52    4.5   249     11.7   782.1    0.00     143    999.0  162.1
 107   16:00   50.1    59    4.6   260     10.4   782.1    0.00      89    999.0  162.0
 107   16:10   49.4    64    4.7   251     13.4   782.1    0.00      84    999.0  162.2
 107   16:20   49.4    67    3.9   251      8.8   782.1    0.00      76    999.0  103.7
 107   16:30   49.0    69    3.1   262     11.2   782.1    0.00     101    999.0   32.8
 107   16:40   49.3    68    3.9   245     11.4   782.1    0.00      80    999.0   19.0
 107   16:50   48.6    70    3.9   255      9.9   782.1    0.00      66    999.0   19.3
 107   17:00   48.2    70    3.8   248      9.1   782.1    0.00      54    999.0   19.5
 107   17:10   48.2    72    3.5   257      9.3   782.1    0.00      67    999.0   19.2
 107   17:20   48.1    72    3.6   242      9.1   782.0    0.00      51    999.0   18.8
 107   17:30   46.9    74    3.2   260      9.6   782.0    0.00      25    999.0   18.8
 107   17:40   46.5    75    2.8   271      6.8   781.8    0.00      38    999.0   19.1
 107   17:50   47.3    74    2.9   258      8.1   781.7    0.00      52    999.0   19.3
 107   18:00   46.9    73    2.6   276      6.1   781.8    0.00      29    999.0   19.6
 107   18:10   45.6    76    2.7   275      5.6   781.7    0.00      19    999.0   19.7
 107   18:20   44.6    77    2.5   280      5.7   781.8    0.00      10    999.0   19.9
 107   18:30   44.0    77    2.3   298      5.5   781.9    0.00       9    999.0   19.8
 107   18:40   43.3    78    2.5   297      6.9   781.9    0.00       3    999.0   20.0
 107   18:50   42.6    79    2.0   311      5.6   782.0    0.00       1    999.0   20.0
 107   19:00   42.1    81    2.1   316      5.4   782.1    0.00       0    999.0   20.0
 107   19:10   41.6    82    1.8   313      5.0   782.2    0.00       0    999.0   20.1
 107   19:20   41.3    82    1.3   310      2.8   782.3    0.00       0    999.0   20.2
 107   19:30   41.1    83    1.8   309      3.8   782.4    0.00       0    999.0   20.3
 107   19:40   40.8    84    1.9   314      4.5   782.5    0.00       0    999.0   20.3
 107   19:50   40.4    85    1.4   322      3.4   782.6    0.00       0    999.0   20.4
 107   20:00   40.2    86    0.8   317      1.5   782.6    0.00       0    999.0   20.3
 107   20:10   40.2    87    0.7   327      1.2   782.6    0.00       0    999.0   20.4
 107   20:20   40.2    88    0.3   337      1.2   782.8    0.00       0    999.0   20.4
 107   20:30   40.2    87    1.0   359      2.4   782.7    0.00       0    999.0   20.4
 107   20:40   40.1    87    0.8   342      2.3   782.8    0.00       0    999.0   63.6
 107   20:50   40.3    88    1.6    11      3.3   782.8    0.00       0    999.0  162.0
 107   21:00   40.6    84    2.6   184      5.8   782.7    0.00       0    999.0  161.4
 107   21:10   40.9    82    4.9   172      7.8   782.6    0.00       0    999.0   20.2
 107   21:20   41.0    83    4.2   168      6.9   782.5    0.00       0    999.0   20.2
 107   21:30   40.9    82    3.6   168      6.9   782.4    0.00       0    999.0   20.3
 107   21:40   40.9    79    5.3   171      9.2   782.3    0.00       0    999.0   20.2
 107   21:50   41.0    78    5.4   168     10.0   782.1    0.00       0    999.0   20.5
 107   22:00   41.0    78    4.4   163      9.9   782.1    0.00       0    999.0   20.3
 107   22:10   41.3    76    4.8   164     11.2   781.9    0.00       0    999.0   20.3
 107   22:20   41.3    72    4.6   162     10.0   781.8    0.00       0    999.0   20.4
 107   22:30   41.6    71    5.1   171     11.3   781.8    0.00       0    999.0   20.3
 107   22:40   41.5    72    5.7   176      9.8   781.9    0.00       0    999.0   20.2
 107   22:50   41.3    73    4.9   175      9.5   782.0    0.00       0    999.0   20.2
 107   23:00   41.1    72    4.9   177      8.0   782.0    0.00       0    999.0   20.1
 107   23:10   41.1    71    3.7   166      6.9   782.0    0.00       0    999.0   20.2
 107   23:20   41.0    70    2.7   161      5.9   782.1    0.00       0    999.0   20.2
 107   23:30   40.9    71    4.6   176      6.5   782.1    0.00       0    999.0   20.4
 107   23:40   40.8    71    4.0   173      6.3   782.1    0.00       0    999.0   20.3
 107   23:50   40.9    71    4.1   180      6.3   782.2    0.00       0    999.0   20.3
 108    0:00   40.8    71    4.2   183      5.7   782.1    0.00       0    999.0   20.5
 108    0:10   40.8    71    2.7   180      4.2   782.1    0.00       0    999.0   20.3
 108    0:20   40.8    71    1.5   221      4.3   782.1    0.00       0    999.0   63.5
 108    0:30   40.9    71    1.5   228      3.4   782.0    0.00       0    999.0  133.6
 108    0:40   41.0    70    1.9   232      4.3   782.1    0.00       0    999.0  162.0
 108    0:50   41.0    69    1.9   236      3.7   782.0    0.00       0    999.0   62.2
 108    1:00   40.7    69    2.3   202      4.5   781.8    0.00       0    999.0  134.3
 108    1:10   40.6    69    3.4   174      5.7   781.7    0.00       0    999.0   48.0
 108    1:20   40.8    68    2.5   162      3.9   781.6    0.00       0    999.0   20.1
 108    1:30   40.7    68    2.7   166      4.4   781.6    0.00       0    999.0   20.5
 108    1:40   40.7    69    2.7   180      4.3   781.6    0.00       0    999.0  120.3
 108    1:50   40.6    69    3.7   191      5.7   781.7    0.00       0    999.0  161.2
 108    2:00   40.7    69    2.2   219      3.9   781.7    0.00       0    999.0   91.7
 108    2:10   40.8    70    2.2   242      3.8   781.8    0.00       0    999.0  162.0
 108    2:20   41.0    70    2.2   235      4.7   781.8    0.00       0    999.0  162.0
 108    2:30   40.9    70    1.5   230      3.0   781.8    0.00       0    999.0  147.7
 108    2:40   40.7    71    1.6   207      2.9   781.7    0.00       0    999.0  147.1
 108    2:50   40.5    72    1.8   192      2.9   781.7    0.00       0    999.0   20.4
 108    3:00   40.3    72    1.1   177      2.0   781.6    0.00       0    999.0   20.6
 108    3:10   40.1    73    0.7   224      1.8   781.6    0.00       0    999.0   20.8
 108    3:20   40.3    72    0.8   270      1.5   781.6    0.00       0    999.0   20.8
 108    3:30   40.6    71    1.2   246      2.5   781.6    0.00       0    999.0   20.6
 108    3:40   40.9    70    1.4   213      2.0   781.6    0.00       0    999.0   20.6
 108    3:50   41.1    69    1.2   210      2.1   781.6    0.00       0    999.0   20.5
 108    4:00   41.0    69    1.9   180      2.8   781.6    0.00       0    999.0   20.6
 108    4:10   40.8    69    0.8   220      1.7   781.7    0.00       0    999.0   20.4
 108    4:20   40.6    68    1.4   199      2.9   781.7    0.00       0    999.0   20.8
 108    4:30   40.7    69    2.1   139      3.1   781.6    0.00       0    999.0   20.6
 108    4:40   40.8    70    2.0   131      2.7   781.6    0.00       0    999.0   20.6
 108    4:50   40.7    70    2.0   122      2.9   781.6    0.00       0    999.0   20.6
 108    5:00   40.7    70    2.5   120      3.6   781.7    0.00       0    999.0   20.7
 108    5:10   40.8    70    3.0   120      4.5   781.7    0.00       0    999.0   20.7
 108    5:20   40.7    70    3.0   126      4.7   781.7    0.00       1    999.0   77.8
 108    5:30   40.8    69    2.9   126      4.5   781.8    0.00       2    999.0  162.2
 108    5:40   41.1    68    4.0   134      5.8   781.8    0.00       4    999.0  147.3
 108    5:50   41.4    68    4.4   131      5.8   781.8    0.00       8    999.0   20.6
 108    6:00   41.4    67    3.5   124      6.4   781.9    0.00      12    999.0   20.6
 108    6:10   41.8    66    2.8   119      4.5   782.1    0.00      16    999.0   20.6
 108    6:20   42.4    66    2.2   124      3.4   782.2    0.00      61    999.0   20.4
 108    6:30   44.3    63    1.9   141      3.8   782.3    0.00     110    999.0   20.3
 108    6:40   44.9    60    3.0   158      5.1   782.2    0.00     134    999.0   19.9
 108    6:50   45.4    59    2.9   143      5.3   782.2    0.00     158    999.0   33.9
 108    7:00   46.1    55    2.3   140      5.9   782.2    0.00     185    999.0   20.4
 108    7:10   46.2    53    3.4   116      6.4   782.4    0.00     211    999.0   34.8
 108    7:20   46.8    51    2.3   164      4.6   782.5    0.00     214    999.0  147.1
 108    7:30   47.1    51    2.2   153      4.1   782.5    0.00      78    999.0  161.3
 108    7:40   47.2    48    2.2   136      5.6   782.5    0.00     210    999.0  157.7
 108    7:50   48.3    46    1.9   151      3.9   782.6    0.00     319    999.0   32.7
 108    8:00   48.4    47    2.3   191      5.6   782.6    0.00     346    999.0   74.8
 108    8:10   48.0    48    1.9   233      5.4   782.6    0.00     372    999.0   47.6
 108    8:20   48.1    49    2.5   226      5.7   782.6    0.00     398    999.0   19.6
 108    8:30   48.8    48    1.9   232      5.7   782.8    0.00     423    999.0   19.4
 108    8:40   48.9    46    3.1   195      8.5   782.8    0.00     449    999.0   18.6
 108    8:50   49.0    46    4.4   206      9.8   782.9    0.00     463    999.0   33.8
 108    9:00   48.7    45    4.8   181      9.1   783.0    0.00     480    999.0  161.5
 108    9:10   49.0    45    3.5   228      8.5   783.1    0.00     502    999.0  162.1
 108    9:20   49.5    42    3.4   151      8.7   783.1    0.00     525    999.0   74.9
 108    9:30   49.8    44    4.6   177      9.7   783.2    0.00     541    999.0   61.5
 108    9:40   49.9    44    4.1   188     11.8   783.3    0.00     557    999.0  119.4
 108    9:50   50.3    45    3.5   193     11.2   783.3    0.00     577    999.0  132.1
 108   10:00   50.9    44    3.6   193      8.4   783.3    0.00     597    999.0   19.1
 108   10:10   51.0    45    3.8   203      9.2   783.3    0.00     613    999.0   18.9
 108   10:20   51.1    45    3.8   178      9.2   783.3    0.00     634    999.0   18.2
 108   10:30   51.3    45    5.1   193     10.4   783.3    0.00     657    999.0   18.4
 108   10:40   51.6    46    3.7   220      8.9   783.3    0.00     672    999.0  118.7
 108   10:50   51.9    46    6.4   201     13.8   783.3    0.00     689    999.0  161.8
 108   11:00   52.4    43    3.6   239     11.9   783.3    0.00     710    999.0  161.7
 108   11:10   52.7    44    4.2   220     11.6   783.3    0.00     743    999.0  161.8
 108   11:20   52.7    45    4.3   214     14.4   783.2    0.00     748    999.0  162.1
 108   11:30   53.2    44    4.4   216     11.4   783.2    0.00     736    999.0  162.0
 108   11:40   53.3    44    4.9   192     12.1   783.1    0.00     735    999.0  162.0
 108   11:50   53.5    44    4.5   238     13.0   783.1    0.00     749    999.0  162.0
 108   12:00   53.3    44    5.0   228     13.2   783.1    0.00     750    999.0  162.0
 108   12:10   53.3    47    4.7   226     10.4   783.1    0.00     743    999.0  162.0
 108   12:20   53.6    49    4.6   219     10.1   783.1    0.00     740    999.0  162.0
 108   12:30   53.7    49    4.5   205     12.1   783.1    0.00     745    999.0  162.0
 108   12:40   54.2    48    5.2   209     13.9   782.9    0.00     759    999.0  162.0
 108   12:50   54.8    48    4.0   234      9.2   782.9    0.00     755    999.0  161.9
 108   13:00   54.9    47    3.2   235      8.6   782.9    0.00     762    999.0  161.6
 108   13:10   55.6    50    2.4   264      6.7   783.0    0.00     736    999.0  161.3
 108   13:20   55.5    51    2.1   285      5.7   783.0    0.00     714    999.0  161.2
 108   13:30   54.4    55    3.2   182     11.2   783.0    0.00     632    999.0  160.5

Return to Alpha graphs page.


Western Regional Climate Center,wrcc@dri.edu